createdAt,value
2023-05-21T00:00:37.537Z,79.90
2023-05-21T00:03:14.027Z,79.35
2023-05-21T00:05:47.312Z,79.68
2023-05-21T00:08:19.047Z,79.42
2023-05-21T00:10:50.630Z,79.20
2023-05-21T00:13:22.250Z,79.36
2023-05-21T00:15:54.184Z,78.91
2023-05-21T00:18:25.766Z,78.94
2023-05-21T00:20:57.858Z,78.91
2023-05-21T00:23:32.640Z,78.64
2023-05-21T00:26:04.315Z,79.66
2023-05-21T00:28:35.917Z,79.53
2023-05-21T00:31:07.664Z,80.17
2023-05-21T00:33:39.296Z,79.37
2023-05-21T00:36:14.386Z,78.89
2023-05-21T00:38:46.194Z,80.31
2023-05-21T00:41:18.890Z,79.18
2023-05-21T00:43:50.714Z,78.17
2023-05-21T00:46:22.821Z,80.49
2023-05-21T00:48:55.033Z,80.84
2023-05-21T00:51:30.312Z,79.80
2023-05-21T00:54:02.509Z,79.58
2023-05-21T00:56:36.181Z,80.22
2023-05-21T00:59:08.232Z,79.75
2023-05-21T01:01:40.050Z,79.44
2023-05-21T01:04:13.211Z,79.24
2023-05-21T01:06:44.857Z,79.26
2023-05-21T01:09:16.852Z,79.52
2023-05-21T01:11:51.192Z,79.76
2023-05-21T01:14:24.731Z,79.71
2023-05-21T01:16:56.391Z,79.84
2023-05-21T01:19:28.907Z,80.03
2023-05-21T01:22:05.210Z,80.09
2023-05-21T01:24:36.902Z,80.06
2023-05-21T01:27:10.451Z,79.93
2023-05-21T01:29:42.098Z,79.35
2023-05-21T01:32:34.473Z,79.45
2023-05-21T01:35:12.756Z,78.98
2023-05-21T01:37:59.649Z,79.15
2023-05-21T01:40:55.251Z,78.73
2023-05-21T01:43:29.280Z,79.08
2023-05-21T01:46:02.238Z,78.85
2023-05-21T01:48:35.134Z,78.27
2023-05-21T01:51:06.876Z,78.10
2023-05-21T01:53:41.254Z,78.40
2023-05-21T01:56:12.938Z,78.28
2023-05-21T01:58:44.539Z,79.42
2023-05-21T02:01:16.147Z,80.37
2023-05-21T02:03:47.815Z,79.58
2023-05-21T02:06:19.432Z,80.37
2023-05-21T02:08:51.099Z,79.95
2023-05-21T02:11:23.987Z,79.47
2023-05-21T02:13:57.427Z,80.03
2023-05-21T02:16:29.195Z,79.95
2023-05-21T02:19:00.916Z,79.42
2023-05-21T02:21:32.733Z,78.86
2023-05-21T02:24:04.658Z,79.16
2023-05-21T02:26:37.405Z,79.07
2023-05-21T02:29:09.091Z,79.17
2023-05-21T02:31:41.238Z,79.03
2023-05-21T02:34:12.971Z,79.56
2023-05-21T02:36:44.614Z,78.83
2023-05-21T02:39:19.793Z,79.55
2023-05-21T02:41:51.440Z,79.33
2023-05-21T02:44:24.119Z,80.01
2023-05-21T02:46:55.716Z,79.86
2023-05-21T02:49:27.306Z,79.28
2023-05-21T02:51:58.949Z,79.90
2023-05-21T02:54:33.620Z,79.21
2023-05-21T02:57:05.737Z,78.72
2023-05-21T02:59:37.301Z,78.42
2023-05-21T03:02:09.034Z,78.67
2023-05-21T03:04:46.439Z,79.73
2023-05-21T03:07:19.294Z,78.70
2023-05-21T03:09:51.007Z,78.14
2023-05-21T03:12:22.838Z,77.42
2023-05-21T03:14:54.485Z,77.11
2023-05-21T03:17:26.122Z,78.03
2023-05-21T03:19:59.054Z,78.94
2023-05-21T03:22:30.684Z,78.54
2023-05-21T03:25:02.727Z,78.60
2023-05-21T03:27:36.639Z,78.32
2023-05-21T03:30:09.664Z,77.92
2023-05-21T03:32:41.399Z,77.63
2023-05-21T03:35:13.285Z,77.67
2023-05-21T03:37:44.932Z,77.79
2023-05-21T03:40:16.668Z,78.15
2023-05-21T03:42:48.498Z,76.96
2023-05-21T03:45:20.287Z,77.05
2023-05-21T03:47:52.044Z,76.76
2023-05-21T03:50:23.680Z,76.82
2023-05-21T03:52:55.471Z,77.59
2023-05-21T03:55:30.006Z,77.55
2023-05-21T03:58:01.930Z,78.26
2023-05-21T04:00:34.529Z,78.16
2023-05-21T04:03:07.281Z,77.40
2023-05-21T04:05:39.009Z,77.40
2023-05-21T04:08:10.959Z,77.12
2023-05-21T04:10:45.743Z,76.91
2023-05-21T04:13:17.342Z,76.91
2023-05-21T04:15:49.082Z,77.15
2023-05-21T04:18:22.956Z,76.82
2023-05-21T04:20:54.596Z,76.62
2023-05-21T04:23:26.190Z,76.18
2023-05-21T04:25:57.790Z,76.82
2023-05-21T04:28:29.919Z,76.63
2023-05-21T04:31:01.584Z,76.34
2023-05-21T04:33:33.353Z,76.28
2023-05-21T04:36:05.103Z,76.51
2023-05-21T04:38:37.104Z,76.09
2023-05-21T04:41:10.844Z,75.92
2023-05-21T04:43:44.087Z,75.64
2023-05-21T04:46:15.872Z,76.34
2023-05-21T04:48:47.676Z,75.51
2023-05-21T04:51:19.306Z,75.31
2023-05-21T04:53:50.971Z,74.50
2023-05-21T04:56:22.541Z,74.26
2023-05-21T04:58:54.439Z,73.63
2023-05-21T05:01:27.390Z,72.71
2023-05-21T05:03:59.201Z,73.25
2023-05-21T05:06:31.723Z,71.63
2023-05-21T05:09:04.592Z,71.16
2023-05-21T05:11:36.245Z,71.80
2023-05-21T05:14:07.872Z,71.63
2023-05-21T05:16:39.500Z,71.02
2023-05-21T05:19:11.149Z,70.27
2023-05-21T05:21:42.846Z,71.14
2023-05-21T05:24:14.712Z,69.82
2023-05-21T05:26:46.326Z,69.61
2023-05-21T05:29:17.941Z,68.10
2023-05-21T05:31:49.618Z,68.96
2023-05-21T05:34:24.273Z,66.89
2023-05-21T05:36:57.276Z,66.73
2023-05-21T05:39:28.894Z,69.51
2023-05-21T05:42:00.575Z,69.18
2023-05-21T05:44:32.319Z,67.84
2023-05-21T05:47:09.067Z,67.45
2023-05-21T05:49:41.130Z,65.23
2023-05-21T05:52:12.826Z,66.67
2023-05-21T05:54:44.545Z,68.47
2023-05-21T05:57:16.234Z,68.66
2023-05-21T05:59:47.849Z,69.44
2023-05-21T06:02:19.620Z,70.67
2023-05-21T06:04:54.289Z,73.25
2023-05-21T06:07:25.905Z,73.93
2023-05-21T06:09:57.555Z,69.62
2023-05-21T06:12:29.178Z,69.95
2023-05-21T06:15:01.778Z,69.16
2023-05-21T06:17:33.586Z,66.13
2023-05-21T06:20:06.269Z,66.07
2023-05-21T06:22:38.317Z,66.17
2023-05-21T06:25:10.711Z,61.94
2023-05-21T06:27:42.428Z,61.34
2023-05-21T06:30:14.074Z,58.14
2023-05-21T06:32:45.830Z,54.91
2023-05-21T06:35:17.520Z,56.21
2023-05-21T06:37:49.309Z,57.07
2023-05-21T06:40:21.727Z,56.91
2023-05-21T06:42:53.487Z,55.38
2023-05-21T06:45:25.144Z,56.33
2023-05-21T06:47:56.718Z,58.75
2023-05-21T06:50:28.443Z,60.21
2023-05-21T06:53:01.249Z,58.11
2023-05-21T06:55:32.971Z,54.68
2023-05-21T06:58:04.552Z,57.39
2023-05-21T07:00:36.156Z,55.01
2023-05-21T07:03:07.818Z,61.66
2023-05-21T07:05:39.887Z,57.66
2023-05-21T07:08:12.256Z,53.62
2023-05-21T07:10:44.127Z,60.70
2023-05-21T07:13:16.318Z,59.96
2023-05-21T07:15:48.195Z,61.83
2023-05-21T07:18:22.136Z,53.44
2023-05-21T07:20:53.912Z,54.05
2023-05-21T07:23:25.530Z,53.91
2023-05-21T07:25:57.195Z,58.88
2023-05-21T07:28:28.882Z,56.78
2023-05-21T07:31:00.643Z,54.77
2023-05-21T07:33:32.338Z,49.07
2023-05-21T07:36:05.023Z,50.41
2023-05-21T07:38:36.636Z,47.38
2023-05-21T07:41:08.428Z,45.03
2023-05-21T07:43:40.145Z,47.35
2023-05-21T07:46:13.333Z,51.29
2023-05-21T07:48:45.675Z,46.42
2023-05-21T07:51:17.576Z,49.06
2023-05-21T07:53:49.177Z,47.26
2023-05-21T07:56:21.571Z,38.05
2023-05-21T07:58:53.963Z,41.08
2023-05-21T08:01:28.234Z,41.35
2023-05-21T08:04:09.221Z,41.56
2023-05-21T08:06:40.921Z,42.75
2023-05-21T08:09:15.458Z,39.34
2023-05-21T08:11:47.182Z,39.90
2023-05-21T08:14:18.867Z,41.06
2023-05-21T08:16:50.747Z,42.43
2023-05-21T08:19:22.460Z,40.30
2023-05-21T08:21:54.156Z,40.47
2023-05-21T08:24:26.475Z,43.05
2023-05-21T08:26:58.133Z,37.89
2023-05-21T08:29:29.774Z,37.14
2023-05-21T08:32:01.537Z,45.16
2023-05-21T08:34:33.256Z,44.72
2023-05-21T08:37:04.883Z,49.50
2023-05-21T08:39:45.395Z,46.53
2023-05-21T08:42:38.760Z,48.41
2023-05-21T08:45:16.804Z,49.43
2023-05-21T08:47:56.021Z,51.33
2023-05-21T08:50:28.436Z,50.58
2023-05-21T08:53:04.003Z,52.00
2023-05-21T08:55:42.804Z,49.27
2023-05-21T08:58:14.639Z,45.72
2023-05-21T09:00:46.269Z,41.88
2023-05-21T09:03:18.356Z,42.52
2023-05-21T09:05:51.848Z,42.42
2023-05-21T09:08:37.390Z,46.17
2023-05-21T09:11:09.059Z,44.18
2023-05-21T09:13:43.582Z,41.50
2023-05-21T09:16:15.218Z,39.74
2023-05-21T09:18:46.895Z,41.83
2023-05-21T09:21:27.482Z,42.76
2023-05-21T09:24:01.700Z,42.38
2023-05-21T09:26:34.258Z,43.96
2023-05-21T09:29:06.058Z,46.09
2023-05-21T09:31:45.031Z,50.17
2023-05-21T09:34:17.064Z,51.69
2023-05-21T09:36:52.095Z,51.67
2023-05-21T09:39:33.448Z,48.73
2023-05-21T09:42:05.457Z,45.99
2023-05-21T09:44:37.314Z,46.68
2023-05-21T09:47:12.257Z,47.72
2023-05-21T09:49:44.688Z,47.88
2023-05-21T09:52:26.392Z,46.82
2023-05-21T09:54:58.018Z,46.44
2023-05-21T09:57:29.846Z,42.17
2023-05-21T10:00:01.407Z,41.59
2023-05-21T10:02:37.382Z,41.14
2023-05-21T10:05:10.383Z,38.37
2023-05-21T10:07:45.832Z,34.02
2023-05-21T10:10:21.259Z,33.98
2023-05-21T10:13:09.081Z,40.49
2023-05-21T10:15:59.408Z,38.07
2023-05-21T10:18:33.425Z,45.39
2023-05-21T10:21:07.155Z,42.68
2023-05-21T10:23:39.537Z,36.79
2023-05-21T10:26:12.657Z,34.76
2023-05-21T10:28:45.211Z,38.65
2023-05-21T10:31:17.847Z,43.14
2023-05-21T10:33:50.948Z,35.45
2023-05-21T10:36:27.685Z,35.57
2023-05-21T10:39:00.732Z,37.60
2023-05-21T10:41:53.196Z,44.12
2023-05-21T10:44:38.466Z,37.78
2023-05-21T10:47:47.977Z,33.66
2023-05-21T10:50:41.120Z,32.56
2023-05-21T10:54:16.997Z,39.86
2023-05-21T10:57:03.916Z,36.62
2023-05-21T10:59:43.919Z,33.69
2023-05-21T11:02:17.828Z,31.03
2023-05-21T11:05:01.922Z,34.72
2023-05-21T11:07:56.903Z,35.83
2023-05-21T11:10:41.523Z,36.54
2023-05-21T11:13:22.354Z,31.70
2023-05-21T11:16:02.662Z,34.28
2023-05-21T11:18:38.085Z,36.58
2023-05-21T11:21:16.526Z,33.98
2023-05-21T11:23:57.089Z,36.57
2023-05-21T11:26:50.832Z,36.19
2023-05-21T11:29:42.526Z,34.20
2023-05-21T11:32:15.636Z,36.34
2023-05-21T11:34:48.431Z,36.01
2023-05-21T11:37:33.329Z,35.20
2023-05-21T11:40:28.331Z,35.58
2023-05-21T11:42:59.974Z,32.11
2023-05-21T11:45:33.347Z,32.83
2023-05-21T11:48:06.337Z,31.76
2023-05-21T11:50:38.399Z,33.88
2023-05-21T11:53:12.385Z,34.16
2023-05-21T11:55:47.288Z,34.01
2023-05-21T11:58:19.734Z,30.70
2023-05-21T12:00:51.703Z,33.56
2023-05-21T12:03:27.014Z,30.45
2023-05-21T12:06:06.596Z,32.45
2023-05-21T12:08:38.417Z,33.54
2023-05-21T12:11:10.019Z,34.10
2023-05-21T12:13:41.721Z,33.08
2023-05-21T12:16:14.075Z,33.58
2023-05-21T12:18:45.764Z,33.20
2023-05-21T12:21:17.459Z,33.37
2023-05-21T12:23:49.049Z,33.58
2023-05-21T12:26:21.921Z,32.71
2023-05-21T12:28:56.872Z,33.53
2023-05-21T12:31:30.886Z,32.19
2023-05-21T12:34:02.499Z,33.64
2023-05-21T12:36:34.372Z,32.09
2023-05-21T12:39:10.617Z,30.97
2023-05-21T12:41:44.012Z,31.22
2023-05-21T12:44:15.691Z,30.67
2023-05-21T12:46:47.315Z,28.94
2023-05-21T12:49:40.047Z,32.27
2023-05-21T12:52:13.546Z,32.36
2023-05-21T12:54:50.043Z,32.52
2023-05-21T12:57:25.357Z,34.56
2023-05-21T13:00:01.013Z,34.21
2023-05-21T13:02:44.865Z,33.22
2023-05-21T13:05:18.386Z,32.19
2023-05-21T13:07:51.634Z,30.54
2023-05-21T13:10:23.321Z,34.07
2023-05-21T13:12:54.957Z,31.15
2023-05-21T13:15:26.578Z,31.32
2023-05-21T13:17:58.291Z,32.77
2023-05-21T13:20:38.522Z,31.32
2023-05-21T13:23:11.833Z,32.19
2023-05-21T13:25:44.312Z,31.74
2023-05-21T13:28:17.082Z,33.24
2023-05-21T13:30:48.698Z,32.15
2023-05-21T13:33:20.594Z,31.22
2023-05-21T13:35:52.364Z,30.06
2023-05-21T13:38:26.932Z,33.51
2023-05-21T13:40:58.590Z,33.10
2023-05-21T13:43:33.251Z,32.16
2023-05-21T13:46:05.177Z,31.76
2023-05-21T13:48:36.787Z,31.93
2023-05-21T13:51:08.731Z,31.32
2023-05-21T13:53:40.418Z,37.24
2023-05-21T13:56:12.100Z,33.14
2023-05-21T13:58:43.739Z,32.18
2023-05-21T14:01:15.607Z,32.63
2023-05-21T14:03:47.228Z,33.58
2023-05-21T14:06:18.995Z,33.22
2023-05-21T14:08:53.342Z,35.53
2023-05-21T14:11:24.962Z,35.29
2023-05-21T14:13:57.063Z,32.93
2023-05-21T14:16:28.814Z,31.05
2023-05-21T14:19:00.517Z,29.95
2023-05-21T14:21:32.248Z,27.69
2023-05-21T14:24:04.296Z,27.16
2023-05-21T14:26:40.067Z,28.89
2023-05-21T14:29:11.965Z,28.35
2023-05-21T14:31:43.616Z,26.65
2023-05-21T14:34:15.373Z,27.18
2023-05-21T14:36:47.047Z,25.34
2023-05-21T14:39:18.687Z,26.10
2023-05-21T14:41:50.553Z,25.49
2023-05-21T14:44:22.117Z,26.14
2023-05-21T14:46:53.852Z,24.94
2023-05-21T14:49:25.560Z,24.79
2023-05-21T14:51:57.235Z,26.20
2023-05-21T14:54:28.823Z,24.07
2023-05-21T14:57:00.449Z,26.36
2023-05-21T14:59:32.042Z,27.40
2023-05-21T15:02:03.852Z,27.43
2023-05-21T15:04:35.545Z,27.72
2023-05-21T15:07:07.164Z,26.40
2023-05-21T15:09:38.717Z,25.22
2023-05-21T15:12:10.345Z,25.36
2023-05-21T15:14:41.993Z,26.93
2023-05-21T15:17:13.561Z,26.27
2023-05-21T15:19:45.327Z,27.26
2023-05-21T15:22:16.967Z,29.06
2023-05-21T15:24:48.734Z,27.26
2023-05-21T15:27:20.454Z,29.28
2023-05-21T15:29:53.121Z,29.93
2023-05-21T15:32:25.479Z,29.83
2023-05-21T15:34:57.166Z,28.52
2023-05-21T15:37:32.239Z,28.40
2023-05-21T15:40:04.717Z,28.53
2023-05-21T15:42:36.352Z,27.92
2023-05-21T15:45:08.864Z,28.21
2023-05-21T15:47:43.373Z,28.73
2023-05-21T15:50:15.427Z,29.83
2023-05-21T15:52:53.035Z,29.20
2023-05-21T15:55:25.016Z,30.51
2023-05-21T15:57:56.639Z,30.19
2023-05-21T16:00:28.288Z,31.78
2023-05-21T16:03:00.069Z,32.00
2023-05-21T16:05:31.750Z,30.85
2023-05-21T16:08:03.568Z,32.12
2023-05-21T16:10:35.481Z,32.48
2023-05-21T16:13:07.259Z,33.02
2023-05-21T16:15:46.916Z,33.06
2023-05-21T16:18:18.524Z,33.96
2023-05-21T16:20:50.244Z,33.69
2023-05-21T16:23:23.088Z,33.78
2023-05-21T16:25:54.864Z,36.23
2023-05-21T16:28:27.355Z,35.19
2023-05-21T16:30:59.231Z,35.25
2023-05-21T16:33:30.980Z,34.49
2023-05-21T16:36:02.695Z,33.94
2023-05-21T16:38:34.363Z,35.32
2023-05-21T16:41:06.561Z,34.63
2023-05-21T16:43:38.271Z,36.94
2023-05-21T16:46:10.250Z,36.78
2023-05-21T16:48:42.778Z,36.54
2023-05-21T16:51:14.488Z,32.76
2023-05-21T16:53:46.871Z,32.26
2023-05-21T16:56:18.435Z,30.83
2023-05-21T16:58:53.105Z,31.48
2023-05-21T17:01:26.816Z,31.32
2023-05-21T17:03:58.553Z,30.58
2023-05-21T17:06:36.420Z,31.17
2023-05-21T17:09:08.102Z,31.80
2023-05-21T17:11:42.202Z,30.49
2023-05-21T17:14:23.299Z,30.57
2023-05-21T17:17:06.651Z,30.56
2023-05-21T17:19:38.740Z,30.34
2023-05-21T17:22:10.494Z,30.24
2023-05-21T17:24:42.253Z,31.22
2023-05-21T17:27:16.595Z,31.04
2023-05-21T17:29:48.236Z,32.38
2023-05-21T17:32:20.965Z,31.92
2023-05-21T17:34:53.846Z,30.84
2023-05-21T17:37:25.577Z,32.17
2023-05-21T17:39:57.807Z,32.30
2023-05-21T17:42:29.451Z,33.52
2023-05-21T17:45:01.428Z,32.27
2023-05-21T17:47:34.545Z,32.95
2023-05-21T17:50:07.674Z,35.70
2023-05-21T17:52:39.429Z,40.66
2023-05-21T17:55:11.175Z,40.14
2023-05-21T17:57:42.864Z,43.34
2023-05-21T18:00:14.836Z,45.76
2023-05-21T18:02:46.536Z,46.25
2023-05-21T18:05:18.740Z,47.39
2023-05-21T18:07:50.415Z,47.49
2023-05-21T18:10:24.128Z,47.07
2023-05-21T18:12:55.775Z,48.53
2023-05-21T18:15:27.444Z,47.03
2023-05-21T18:18:02.811Z,46.83
2023-05-21T18:20:35.290Z,47.15
2023-05-21T18:23:07.056Z,47.42
2023-05-21T18:25:38.732Z,47.40
2023-05-21T18:28:10.655Z,46.72
2023-05-21T18:30:42.381Z,47.22
2023-05-21T18:33:17.113Z,47.41
2023-05-21T18:35:48.725Z,48.35
2023-05-21T18:38:21.078Z,48.96
2023-05-21T18:40:55.665Z,49.77
2023-05-21T18:43:27.286Z,51.42
2023-05-21T18:45:59.051Z,50.78
2023-05-21T18:48:30.702Z,50.99
2023-05-21T18:51:02.430Z,51.88
2023-05-21T18:53:34.079Z,53.67
2023-05-21T18:56:07.395Z,52.78
2023-05-21T18:58:41.465Z,53.37
2023-05-21T19:01:13.361Z,53.64
2023-05-21T19:03:45.084Z,54.72
2023-05-21T19:06:16.687Z,53.93
2023-05-21T19:08:48.379Z,55.27
2023-05-21T19:11:23.508Z,54.65
2023-05-21T19:13:55.486Z,55.03
2023-05-21T19:16:27.157Z,55.57
2023-05-21T19:18:58.961Z,55.48
2023-05-21T19:21:31.381Z,55.18
2023-05-21T19:24:05.387Z,54.90
2023-05-21T19:26:37.546Z,55.28
2023-05-21T19:29:09.641Z,56.01
2023-05-21T19:31:41.587Z,56.38
2023-05-21T19:34:13.311Z,56.98
2023-05-21T19:36:53.075Z,57.31
2023-05-21T19:39:25.527Z,57.56
2023-05-21T19:41:57.154Z,57.57
2023-05-21T19:44:31.091Z,58.19
2023-05-21T19:47:02.986Z,58.18
2023-05-21T19:49:34.734Z,58.08
2023-05-21T19:52:06.632Z,57.73
2023-05-21T19:54:38.411Z,57.56
2023-05-21T19:57:12.335Z,56.69
2023-05-21T19:59:44.304Z,56.81
2023-05-21T20:02:17.199Z,56.26
2023-05-21T20:04:50.246Z,56.94
2023-05-21T20:07:21.830Z,57.43
2023-05-21T20:09:54.768Z,58.31
2023-05-21T20:12:27.107Z,58.64
2023-05-21T20:15:00.246Z,59.56
2023-05-21T20:17:34.398Z,59.68
2023-05-21T20:20:12.714Z,60.49
2023-05-21T20:22:45.904Z,61.53
2023-05-21T20:25:17.549Z,61.70
2023-05-21T20:27:49.212Z,61.78
2023-05-21T20:30:20.861Z,61.48
2023-05-21T20:32:52.585Z,61.72
2023-05-21T20:35:24.785Z,61.30
2023-05-21T20:37:56.826Z,61.24
2023-05-21T20:40:29.826Z,61.62
2023-05-21T20:43:01.772Z,62.33
2023-05-21T20:45:35.018Z,62.52
2023-05-21T20:48:11.910Z,63.16
2023-05-21T20:50:48.968Z,63.27
2023-05-21T20:53:21.660Z,63.10
2023-05-21T20:55:54.742Z,63.54
2023-05-21T20:58:27.020Z,64.28
2023-05-21T21:00:58.755Z,64.81
2023-05-21T21:03:36.014Z,65.10
2023-05-21T21:06:09.791Z,64.86
2023-05-21T21:08:50.106Z,65.07
2023-05-21T21:11:21.905Z,64.96
2023-05-21T21:13:53.619Z,64.98
2023-05-21T21:16:25.377Z,64.48
2023-05-21T21:18:57.147Z,63.92
2023-05-21T21:21:28.893Z,64.00
2023-05-21T21:24:00.766Z,63.60
2023-05-21T21:26:34.567Z,63.35
2023-05-21T21:29:06.230Z,63.77
2023-05-21T21:31:38.714Z,65.29
2023-05-21T21:34:10.461Z,65.11
2023-05-21T21:36:44.284Z,65.84
2023-05-21T21:39:17.084Z,65.81
2023-05-21T21:41:48.764Z,66.43
2023-05-21T21:44:23.835Z,66.54
2023-05-21T21:46:55.353Z,66.93
2023-05-21T21:49:27.007Z,66.99
2023-05-21T21:51:58.701Z,67.35
2023-05-21T21:54:30.335Z,66.86
2023-05-21T21:57:02.112Z,66.44
2023-05-21T21:59:34.465Z,66.51
2023-05-21T22:02:06.379Z,67.22
2023-05-21T22:04:38.064Z,67.57
2023-05-21T22:07:11.039Z,67.70
2023-05-21T22:09:42.682Z,68.05
2023-05-21T22:12:14.364Z,68.16
2023-05-21T22:14:46.354Z,68.48
2023-05-21T22:17:18.069Z,68.42
2023-05-21T22:19:49.710Z,68.93
2023-05-21T22:22:21.318Z,69.18
2023-05-21T22:24:53.916Z,69.28
2023-05-21T22:27:25.513Z,69.62
2023-05-21T22:30:00.609Z,69.24
2023-05-21T22:32:34.413Z,68.94
2023-05-21T22:35:06.968Z,69.78
2023-05-21T22:37:39.964Z,68.78
2023-05-21T22:40:14.412Z,68.89
2023-05-21T22:42:47.159Z,69.64
2023-05-21T22:45:19.396Z,69.68
2023-05-21T22:47:51.981Z,69.87
2023-05-21T22:50:25.296Z,69.05
2023-05-21T22:52:56.947Z,69.04
2023-05-21T22:55:30.959Z,68.68
2023-05-21T22:58:02.635Z,68.96
2023-05-21T23:00:38.015Z,68.81
2023-05-21T23:03:09.989Z,68.51
2023-05-21T23:05:41.805Z,68.82
2023-05-21T23:08:13.598Z,68.82
2023-05-21T23:10:45.351Z,68.82
2023-05-21T23:13:16.940Z,68.83
2023-05-21T23:15:48.808Z,68.42
2023-05-21T23:18:20.485Z,51.37
2023-05-21T23:20:52.179Z,0.00
2023-05-21T23:23:23.861Z,0.00
2023-05-21T23:25:57.721Z,0.00
2023-05-21T23:28:29.482Z,75.65
2023-05-21T23:31:03.508Z,68.42
2023-05-21T23:33:35.117Z,68.42
2023-05-21T23:36:07.481Z,68.42
2023-05-21T23:38:39.182Z,70.15
2023-05-21T23:41:13.416Z,70.11
2023-05-21T23:43:48.172Z,70.21
2023-05-21T23:46:23.194Z,70.16
2023-05-21T23:48:54.954Z,70.13
2023-05-21T23:51:26.991Z,71.06
2023-05-21T23:53:58.637Z,71.38
2023-05-21T23:56:31.037Z,70.23
2023-05-21T23:59:02.727Z,69.82
